sensor_id;sensor_type;location;lat;lon;timestamp;temperature;humidity
67572;SHT31;54397;47.506;19.158;2023-07-02T00:02:29;23.39;70.25
67572;SHT31;54397;47.506;19.158;2023-07-02T00:05:53;23.21;70.80
67572;SHT31;54397;47.506;19.158;2023-07-02T00:09:17;23.06;71.30
67572;SHT31;54397;47.506;19.158;2023-07-02T00:12:39;22.98;71.54
67572;SHT31;54397;47.506;19.158;2023-07-02T00:16:01;23.17;70.83
67572;SHT31;54397;47.506;19.158;2023-07-02T00:19:26;22.96;71.52
67572;SHT31;54397;47.506;19.158;2023-07-02T00:22:50;23.06;71.20
67572;SHT31;54397;47.506;19.158;2023-07-02T00:26:13;22.67;72.12
67572;SHT31;54397;47.506;19.158;2023-07-02T00:29:35;22.70;71.98
67572;SHT31;54397;47.506;19.158;2023-07-02T00:32:56;22.73;71.94
67572;SHT31;54397;47.506;19.158;2023-07-02T00:36:18;22.71;71.41
67572;SHT31;54397;47.506;19.158;2023-07-02T00:39:40;22.74;71.62
67572;SHT31;54397;47.506;19.158;2023-07-02T00:43:04;22.71;71.31
67572;SHT31;54397;47.506;19.158;2023-07-02T00:46:34;22.81;71.18
67572;SHT31;54397;47.506;19.158;2023-07-02T00:49:56;22.94;70.67
67572;SHT31;54397;47.506;19.158;2023-07-02T00:53:17;23.06;70.32
67572;SHT31;54397;47.506;19.158;2023-07-02T00:56:39;22.97;70.15
67572;SHT31;54397;47.506;19.158;2023-07-02T01:00:01;22.93;70.30
67572;SHT31;54397;47.506;19.158;2023-07-02T01:03:23;22.77;70.56
67572;SHT31;54397;47.506;19.158;2023-07-02T01:06:48;22.76;70.80
67572;SHT31;54397;47.506;19.158;2023-07-02T01:10:11;22.83;70.38
67572;SHT31;54397;47.506;19.158;2023-07-02T01:13:35;22.91;69.90
67572;SHT31;54397;47.506;19.158;2023-07-02T01:16:57;22.90;69.66
67572;SHT31;54397;47.506;19.158;2023-07-02T01:20:22;22.76;70.41
67572;SHT31;54397;47.506;19.158;2023-07-02T01:23:44;22.60;70.60
67572;SHT31;54397;47.506;19.158;2023-07-02T01:27:07;22.59;70.61
67572;SHT31;54397;47.506;19.158;2023-07-02T01:30:29;22.57;70.69
67572;SHT31;54397;47.506;19.158;2023-07-02T01:33:53;22.52;70.57
67572;SHT31;54397;47.506;19.158;2023-07-02T01:37:15;22.66;70.35
67572;SHT31;54397;47.506;19.158;2023-07-02T01:40:43;22.55;70.23
67572;SHT31;54397;47.506;19.158;2023-07-02T01:44:07;22.57;70.35
67572;SHT31;54397;47.506;19.158;2023-07-02T01:47:29;22.66;69.63
67572;SHT31;54397;47.506;19.158;2023-07-02T01:50:50;22.79;69.19
67572;SHT31;54397;47.506;19.158;2023-07-02T01:54:12;22.84;69.03
67572;SHT31;54397;47.506;19.158;2023-07-02T01:57:34;22.83;68.48
67572;SHT31;54397;47.506;19.158;2023-07-02T02:00:58;22.87;68.21
67572;SHT31;54397;47.506;19.158;2023-07-02T02:04:20;22.49;68.97
67572;SHT31;54397;47.506;19.158;2023-07-02T02:07:41;22.43;69.29
67572;SHT31;54397;47.506;19.158;2023-07-02T02:11:03;22.39;69.69
67572;SHT31;54397;47.506;19.158;2023-07-02T02:14:27;22.56;68.95
67572;SHT31;54397;47.506;19.158;2023-07-02T02:17:48;22.64;68.55
67572;SHT31;54397;47.506;19.158;2023-07-02T02:21:10;22.67;68.52
67572;SHT31;54397;47.506;19.158;2023-07-02T02:24:32;22.70;67.84
67572;SHT31;54397;47.506;19.158;2023-07-02T02:27:54;22.56;68.24
67572;SHT31;54397;47.506;19.158;2023-07-02T02:31:16;22.56;68.68
67572;SHT31;54397;47.506;19.158;2023-07-02T02:34:40;22.55;68.62
67572;SHT31;54397;47.506;19.158;2023-07-02T02:38:03;22.66;68.19
67572;SHT31;54397;47.506;19.158;2023-07-02T02:41:26;22.81;67.52
67572;SHT31;54397;47.506;19.158;2023-07-02T02:44:47;22.53;68.16
67572;SHT31;54397;47.506;19.158;2023-07-02T02:48:09;22.39;68.73
67572;SHT31;54397;47.506;19.158;2023-07-02T02:51:30;22.39;68.59
67572;SHT31;54397;47.506;19.158;2023-07-02T02:54:52;22.42;68.32
67572;SHT31;54397;47.506;19.158;2023-07-02T02:58:14;22.38;68.20
67572;SHT31;54397;47.506;19.158;2023-07-02T03:01:38;22.26;68.93
67572;SHT31;54397;47.506;19.158;2023-07-02T03:05:00;22.11;68.79
67572;SHT31;54397;47.506;19.158;2023-07-02T03:08:24;22.04;69.38
67572;SHT31;54397;47.506;19.158;2023-07-02T03:11:46;21.83;69.57
67572;SHT31;54397;47.506;19.158;2023-07-02T03:15:09;21.87;69.37
67572;SHT31;54397;47.506;19.158;2023-07-02T03:18:33;22.00;69.41
67572;SHT31;54397;47.506;19.158;2023-07-02T03:21:55;21.98;68.69
67572;SHT31;54397;47.506;19.158;2023-07-02T03:25:19;21.98;68.72
67572;SHT31;54397;47.506;19.158;2023-07-02T03:28:44;21.90;68.67
67572;SHT31;54397;47.506;19.158;2023-07-02T03:32:06;21.97;68.82
67572;SHT31;54397;47.506;19.158;2023-07-02T03:35:28;22.04;68.29
67572;SHT31;54397;47.506;19.158;2023-07-02T03:38:49;22.01;68.08
67572;SHT31;54397;47.506;19.158;2023-07-02T03:42:11;21.98;67.95
67572;SHT31;54397;47.506;19.158;2023-07-02T03:45:35;22.00;67.94
67572;SHT31;54397;47.506;19.158;2023-07-02T03:48:57;22.06;68.13
67572;SHT31;54397;47.506;19.158;2023-07-02T03:52:19;22.02;67.96
67572;SHT31;54397;47.506;19.158;2023-07-02T03:55:41;21.92;68.26
67572;SHT31;54397;47.506;19.158;2023-07-02T03:59:02;21.88;68.35
67572;SHT31;54397;47.506;19.158;2023-07-02T04:02:26;21.92;68.12
67572;SHT31;54397;47.506;19.158;2023-07-02T04:05:48;21.92;68.17
67572;SHT31;54397;47.506;19.158;2023-07-02T04:09:10;21.85;68.12
67572;SHT31;54397;47.506;19.158;2023-07-02T04:12:32;22.01;67.88
67572;SHT31;54397;47.506;19.158;2023-07-02T04:15:56;22.18;67.43
67572;SHT31;54397;47.506;19.158;2023-07-02T04:19:22;22.16;67.19
67572;SHT31;54397;47.506;19.158;2023-07-02T04:22:45;22.26;67.28
67572;SHT31;54397;47.506;19.158;2023-07-02T04:26:06;22.36;67.18
67572;SHT31;54397;47.506;19.158;2023-07-02T04:29:48;22.52;66.75
67572;SHT31;54397;47.506;19.158;2023-07-02T04:33:10;22.59;66.76
67572;SHT31;54397;47.506;19.158;2023-07-02T04:36:35;22.61;66.32
67572;SHT31;54397;47.506;19.158;2023-07-02T04:39:59;22.63;66.22
67572;SHT31;54397;47.506;19.158;2023-07-02T04:43:21;22.49;66.89
67572;SHT31;54397;47.506;19.158;2023-07-02T04:46:50;22.61;65.95
67572;SHT31;54397;47.506;19.158;2023-07-02T04:50:12;22.43;66.57
67572;SHT31;54397;47.506;19.158;2023-07-02T04:53:37;22.52;66.58
67572;SHT31;54397;47.506;19.158;2023-07-02T04:57:01;22.48;66.63
67572;SHT31;54397;47.506;19.158;2023-07-02T05:00:23;22.48;67.38
67572;SHT31;54397;47.506;19.158;2023-07-02T05:03:45;22.40;66.87
67572;SHT31;54397;47.506;19.158;2023-07-02T05:07:09;22.53;67.09
67572;SHT31;54397;47.506;19.158;2023-07-02T05:10:30;22.48;66.43
67572;SHT31;54397;47.506;19.158;2023-07-02T05:13:52;22.59;66.21
67572;SHT31;54397;47.506;19.158;2023-07-02T05:17:14;22.83;64.78
67572;SHT31;54397;47.506;19.158;2023-07-02T05:20:38;22.94;64.55
67572;SHT31;54397;47.506;19.158;2023-07-02T05:24:02;23.34;63.90
67572;SHT31;54397;47.506;19.158;2023-07-02T05:27:26;23.41;64.13
67572;SHT31;54397;47.506;19.158;2023-07-02T05:30:50;23.39;63.24
67572;SHT31;54397;47.506;19.158;2023-07-02T05:34:17;23.41;63.51
67572;SHT31;54397;47.506;19.158;2023-07-02T05:37:39;23.42;63.76
67572;SHT31;54397;47.506;19.158;2023-07-02T05:41:04;23.18;64.12
67572;SHT31;54397;47.506;19.158;2023-07-02T05:44:28;23.19;64.07
67572;SHT31;54397;47.506;19.158;2023-07-02T05:47:52;23.31;63.60
67572;SHT31;54397;47.506;19.158;2023-07-02T05:51:22;23.42;64.05
67572;SHT31;54397;47.506;19.158;2023-07-02T05:54:44;23.46;63.34
67572;SHT31;54397;47.506;19.158;2023-07-02T05:58:05;23.52;63.27
67572;SHT31;54397;47.506;19.158;2023-07-02T06:01:27;23.67;63.57
67572;SHT31;54397;47.506;19.158;2023-07-02T06:04:49;23.99;63.10
67572;SHT31;54397;47.506;19.158;2023-07-02T06:08:11;24.18;61.66
67572;SHT31;54397;47.506;19.158;2023-07-02T06:11:37;24.32;61.60
67572;SHT31;54397;47.506;19.158;2023-07-02T06:15:01;24.76;60.08
67572;SHT31;54397;47.506;19.158;2023-07-02T06:18:23;24.78;60.22
67572;SHT31;54397;47.506;19.158;2023-07-02T06:21:45;24.86;59.65
67572;SHT31;54397;47.506;19.158;2023-07-02T06:25:06;25.09;59.42
67572;SHT31;54397;47.506;19.158;2023-07-02T06:28:28;24.95;59.48
67572;SHT31;54397;47.506;19.158;2023-07-02T06:31:50;25.27;59.30
67572;SHT31;54397;47.506;19.158;2023-07-02T06:35:12;25.02;58.39
67572;SHT31;54397;47.506;19.158;2023-07-02T06:38:34;24.85;59.46
67572;SHT31;54397;47.506;19.158;2023-07-02T06:41:55;24.69;60.35
67572;SHT31;54397;47.506;19.158;2023-07-02T06:45:19;24.30;60.40
67572;SHT31;54397;47.506;19.158;2023-07-02T06:48:41;24.28;61.43
67572;SHT31;54397;47.506;19.158;2023-07-02T06:52:03;24.49;60.53
67572;SHT31;54397;47.506;19.158;2023-07-02T06:55:24;24.89;59.80
67572;SHT31;54397;47.506;19.158;2023-07-02T06:58:46;25.48;58.56
67572;SHT31;54397;47.506;19.158;2023-07-02T07:02:08;25.20;57.83
67572;SHT31;54397;47.506;19.158;2023-07-02T07:05:33;24.69;59.84
67572;SHT31;54397;47.506;19.158;2023-07-02T07:08:55;24.64;60.33
67572;SHT31;54397;47.506;19.158;2023-07-02T07:12:16;24.72;59.80
67572;SHT31;54397;47.506;19.158;2023-07-02T07:15:38;24.78;60.20
67572;SHT31;54397;47.506;19.158;2023-07-02T07:19:03;24.83;59.72
67572;SHT31;54397;47.506;19.158;2023-07-02T07:22:27;25.17;59.45
67572;SHT31;54397;47.506;19.158;2023-07-02T07:25:48;25.84;58.55
67572;SHT31;54397;47.506;19.158;2023-07-02T07:29:10;26.50;56.58
67572;SHT31;54397;47.506;19.158;2023-07-02T07:32:32;26.35;55.60
67572;SHT31;54397;47.506;19.158;2023-07-02T07:35:54;26.54;55.53
67572;SHT31;54397;47.506;19.158;2023-07-02T07:39:16;26.65;54.40
67572;SHT31;54397;47.506;19.158;2023-07-02T07:42:40;27.02;52.93
67572;SHT31;54397;47.506;19.158;2023-07-02T07:46:02;26.85;53.21
67572;SHT31;54397;47.506;19.158;2023-07-02T07:49:25;26.94;51.67
67572;SHT31;54397;47.506;19.158;2023-07-02T07:52:49;27.29;51.19
67572;SHT31;54397;47.506;19.158;2023-07-02T07:56:13;27.42;49.92
67572;SHT31;54397;47.506;19.158;2023-07-02T07:59:34;27.89;50.58
67572;SHT31;54397;47.506;19.158;2023-07-02T08:02:56;28.18;48.35
67572;SHT31;54397;47.506;19.158;2023-07-02T08:06:20;28.56;47.34
67572;SHT31;54397;47.506;19.158;2023-07-02T08:09:42;28.56;46.09
67572;SHT31;54397;47.506;19.158;2023-07-02T08:13:07;28.32;45.59
67572;SHT31;54397;47.506;19.158;2023-07-02T08:16:29;28.51;46.75
67572;SHT31;54397;47.506;19.158;2023-07-02T08:19:51;28.79;45.10
67572;SHT31;54397;47.506;19.158;2023-07-02T08:23:12;28.46;46.63
67572;SHT31;54397;47.506;19.158;2023-07-02T08:26:34;28.34;48.06
67572;SHT31;54397;47.506;19.158;2023-07-02T08:29:56;28.31;47.84
67572;SHT31;54397;47.506;19.158;2023-07-02T08:33:18;28.10;48.98
67572;SHT31;54397;47.506;19.158;2023-07-02T08:36:39;28.62;49.60
67572;SHT31;54397;47.506;19.158;2023-07-02T08:40:04;29.38;48.31
67572;SHT31;54397;47.506;19.158;2023-07-02T08:43:26;29.65;47.43
67572;SHT31;54397;47.506;19.158;2023-07-02T08:46:51;28.89;48.03
67572;SHT31;54397;47.506;19.158;2023-07-02T08:50:19;28.15;48.89
67572;SHT31;54397;47.506;19.158;2023-07-02T08:53:41;27.87;48.36
67572;SHT31;54397;47.506;19.158;2023-07-02T08:57:03;28.14;48.91
67572;SHT31;54397;47.506;19.158;2023-07-02T09:00:29;28.11;48.62
67572;SHT31;54397;47.506;19.158;2023-07-02T09:04:00;28.34;48.34
67572;SHT31;54397;47.506;19.158;2023-07-02T09:07:22;28.18;47.87
67572;SHT31;54397;47.506;19.158;2023-07-02T09:10:49;28.15;48.40
67572;SHT31;54397;47.506;19.158;2023-07-02T09:14:11;28.11;48.26
67572;SHT31;54397;47.506;19.158;2023-07-02T09:17:36;27.74;47.24
67572;SHT31;54397;47.506;19.158;2023-07-02T09:20:58;27.73;47.95
67572;SHT31;54397;47.506;19.158;2023-07-02T09:24:23;27.38;50.13
67572;SHT31;54397;47.506;19.158;2023-07-02T09:27:45;27.38;49.90
67572;SHT31;54397;47.506;19.158;2023-07-02T09:31:09;26.99;49.40
67572;SHT31;54397;47.506;19.158;2023-07-02T09:34:32;27.04;50.24
67572;SHT31;54397;47.506;19.158;2023-07-02T09:37:54;27.28;49.59
67572;SHT31;54397;47.506;19.158;2023-07-02T09:41:16;27.47;49.34
67572;SHT31;54397;47.506;19.158;2023-07-02T09:44:40;27.71;50.37
67572;SHT31;54397;47.506;19.158;2023-07-02T09:48:06;27.96;48.47
67572;SHT31;54397;47.506;19.158;2023-07-02T09:51:30;28.42;48.32
67572;SHT31;54397;47.506;19.158;2023-07-02T09:54:52;28.72;48.55
67572;SHT31;54397;47.506;19.158;2023-07-02T09:58:14;28.97;47.39
67572;SHT31;54397;47.506;19.158;2023-07-02T10:01:36;29.07;47.42
67572;SHT31;54397;47.506;19.158;2023-07-02T10:04:57;29.55;46.93
67572;SHT31;54397;47.506;19.158;2023-07-02T10:08:22;29.92;45.53
67572;SHT31;54397;47.506;19.158;2023-07-02T10:11:48;29.79;44.20
67572;SHT31;54397;47.506;19.158;2023-07-02T10:15:26;29.62;43.32
67572;SHT31;54397;47.506;19.158;2023-07-02T10:18:48;29.32;45.71
67572;SHT31;54397;47.506;19.158;2023-07-02T10:22:09;29.31;46.30
67572;SHT31;54397;47.506;19.158;2023-07-02T10:25:33;29.34;45.80
67572;SHT31;54397;47.506;19.158;2023-07-02T10:28:59;29.28;43.62
67572;SHT31;54397;47.506;19.158;2023-07-02T10:32:27;29.32;44.15
67572;SHT31;54397;47.506;19.158;2023-07-02T10:35:50;29.11;44.74
67572;SHT31;54397;47.506;19.158;2023-07-02T10:39:13;29.25;44.44
67572;SHT31;54397;47.506;19.158;2023-07-02T10:42:49;29.55;44.35
67572;SHT31;54397;47.506;19.158;2023-07-02T10:46:21;29.58;43.49
67572;SHT31;54397;47.506;19.158;2023-07-02T10:49:43;29.45;42.64
67572;SHT31;54397;47.506;19.158;2023-07-02T10:53:04;29.68;44.68
67572;SHT31;54397;47.506;19.158;2023-07-02T10:56:27;29.61;44.03
67572;SHT31;54397;47.506;19.158;2023-07-02T10:59:49;29.37;45.16
67572;SHT31;54397;47.506;19.158;2023-07-02T11:03:18;29.65;45.49
67572;SHT31;54397;47.506;19.158;2023-07-02T11:06:47;29.62;43.38
67572;SHT31;54397;47.506;19.158;2023-07-02T11:10:10;29.68;44.06
67572;SHT31;54397;47.506;19.158;2023-07-02T11:13:32;29.48;44.73
67572;SHT31;54397;47.506;19.158;2023-07-02T11:16:54;29.85;46.02
67572;SHT31;54397;47.506;19.158;2023-07-02T11:20:16;29.95;45.02
67572;SHT31;54397;47.506;19.158;2023-07-02T11:23:38;29.73;44.10
67572;SHT31;54397;47.506;19.158;2023-07-02T11:27:02;29.39;44.18
67572;SHT31;54397;47.506;19.158;2023-07-02T11:30:27;29.72;44.72
67572;SHT31;54397;47.506;19.158;2023-07-02T11:33:48;30.12;43.93
67572;SHT31;54397;47.506;19.158;2023-07-02T11:37:13;30.07;44.11
67572;SHT31;54397;47.506;19.158;2023-07-02T11:40:34;30.24;41.23
67572;SHT31;54397;47.506;19.158;2023-07-02T11:43:56;29.95;44.01
67572;SHT31;54397;47.506;19.158;2023-07-02T11:47:18;29.69;41.19
67572;SHT31;54397;47.506;19.158;2023-07-02T11:50:39;29.52;41.89
67572;SHT31;54397;47.506;19.158;2023-07-02T11:54:01;29.17;42.96
67572;SHT31;54397;47.506;19.158;2023-07-02T11:57:23;29.03;42.18
67572;SHT31;54397;47.506;19.158;2023-07-02T12:00:44;29.08;43.52
67572;SHT31;54397;47.506;19.158;2023-07-02T12:04:06;29.50;42.69
67572;SHT31;54397;47.506;19.158;2023-07-02T12:07:29;29.72;42.39
67572;SHT31;54397;47.506;19.158;2023-07-02T12:10:53;29.44;41.62
67572;SHT31;54397;47.506;19.158;2023-07-02T12:14:15;29.04;41.71
67572;SHT31;54397;47.506;19.158;2023-07-02T12:17:38;29.45;42.24
67572;SHT31;54397;47.506;19.158;2023-07-02T12:21:00;29.55;42.18
67572;SHT31;54397;47.506;19.158;2023-07-02T12:24:22;29.66;42.66
67572;SHT31;54397;47.506;19.158;2023-07-02T12:27:44;29.55;42.35
67572;SHT31;54397;47.506;19.158;2023-07-02T12:31:06;29.21;43.01
67572;SHT31;54397;47.506;19.158;2023-07-02T12:34:27;29.48;43.38
67572;SHT31;54397;47.506;19.158;2023-07-02T12:37:52;29.15;44.02
67572;SHT31;54397;47.506;19.158;2023-07-02T12:41:14;29.28;44.65
67572;SHT31;54397;47.506;19.158;2023-07-02T12:44:36;28.97;44.20
67572;SHT31;54397;47.506;19.158;2023-07-02T12:47:57;28.93;45.70
67572;SHT31;54397;47.506;19.158;2023-07-02T12:51:19;29.31;45.48
67572;SHT31;54397;47.506;19.158;2023-07-02T12:54:41;29.51;44.94
67572;SHT31;54397;47.506;19.158;2023-07-02T12:58:05;29.65;44.07
67572;SHT31;54397;47.506;19.158;2023-07-02T13:01:29;29.75;44.12
67572;SHT31;54397;47.506;19.158;2023-07-02T13:04:51;29.69;44.09
67572;SHT31;54397;47.506;19.158;2023-07-02T13:08:15;29.75;43.25
67572;SHT31;54397;47.506;19.158;2023-07-02T13:11:39;29.59;43.26
67572;SHT31;54397;47.506;19.158;2023-07-02T13:15:01;29.61;43.47
67572;SHT31;54397;47.506;19.158;2023-07-02T13:18:23;29.69;43.20
67572;SHT31;54397;47.506;19.158;2023-07-02T13:21:47;29.78;41.83
67572;SHT31;54397;47.506;19.158;2023-07-02T13:25:13;29.89;42.55
67572;SHT31;54397;47.506;19.158;2023-07-02T13:28:35;29.58;42.34
67572;SHT31;54397;47.506;19.158;2023-07-02T13:31:56;29.92;42.28
67572;SHT31;54397;47.506;19.158;2023-07-02T13:35:20;29.85;41.87
67572;SHT31;54397;47.506;19.158;2023-07-02T13:38:44;29.59;41.49
67572;SHT31;54397;47.506;19.158;2023-07-02T13:42:06;29.75;41.32
67572;SHT31;54397;47.506;19.158;2023-07-02T13:45:27;29.82;40.87
67572;SHT31;54397;47.506;19.158;2023-07-02T13:48:52;30.02;41.21
67572;SHT31;54397;47.506;19.158;2023-07-02T13:52:16;30.13;40.38
67572;SHT31;54397;47.506;19.158;2023-07-02T13:55:38;30.13;41.05
67572;SHT31;54397;47.506;19.158;2023-07-02T14:02:23;30.19;41.08
67572;SHT31;54397;47.506;19.158;2023-07-02T14:05:47;30.17;41.36
67572;SHT31;54397;47.506;19.158;2023-07-02T14:09:12;30.05;40.83
67572;SHT31;54397;47.506;19.158;2023-07-02T14:12:36;30.23;40.57
67572;SHT31;54397;47.506;19.158;2023-07-02T14:15:59;30.27;40.95
67572;SHT31;54397;47.506;19.158;2023-07-02T14:19:21;30.23;41.96
67572;SHT31;54397;47.506;19.158;2023-07-02T14:22:42;30.14;40.71
67572;SHT31;54397;47.506;19.158;2023-07-02T14:26:08;29.88;41.73
67572;SHT31;54397;47.506;19.158;2023-07-02T14:29:35;29.95;40.76
67572;SHT31;54397;47.506;19.158;2023-07-02T14:32:57;30.12;40.69
67572;SHT31;54397;47.506;19.158;2023-07-02T14:36:19;29.75;41.36
67572;SHT31;54397;47.506;19.158;2023-07-02T14:39:44;29.48;42.08
67572;SHT31;54397;47.506;19.158;2023-07-02T14:43:28;29.30;42.68
67572;SHT31;54397;47.506;19.158;2023-07-02T14:46:50;29.04;43.21
67572;SHT31;54397;47.506;19.158;2023-07-02T14:50:12;28.67;44.12
67572;SHT31;54397;47.506;19.158;2023-07-02T14:53:33;28.76;44.14
67572;SHT31;54397;47.506;19.158;2023-07-02T14:56:55;28.44;44.49
67572;SHT31;54397;47.506;19.158;2023-07-02T15:00:17;28.52;45.15
67572;SHT31;54397;47.506;19.158;2023-07-02T15:03:39;28.34;45.73
67572;SHT31;54397;47.506;19.158;2023-07-02T15:07:03;28.48;46.13
67572;SHT31;54397;47.506;19.158;2023-07-02T15:10:25;28.35;46.51
67572;SHT31;54397;47.506;19.158;2023-07-02T15:13:47;28.48;45.51
67572;SHT31;54397;47.506;19.158;2023-07-02T15:17:10;28.48;45.22
67572;SHT31;54397;47.506;19.158;2023-07-02T15:20:33;28.51;45.52
67572;SHT31;54397;47.506;19.158;2023-07-02T15:24:02;28.49;45.76
67572;SHT31;54397;47.506;19.158;2023-07-02T15:27:26;28.46;45.13
67572;SHT31;54397;47.506;19.158;2023-07-02T15:30:56;28.48;45.23
67572;SHT31;54397;47.506;19.158;2023-07-02T15:34:19;28.51;42.88
67572;SHT31;54397;47.506;19.158;2023-07-02T15:37:41;28.59;42.90
67572;SHT31;54397;47.506;19.158;2023-07-02T15:41:10;28.59;43.24
67572;SHT31;54397;47.506;19.158;2023-07-02T15:44:33;28.58;41.87
67572;SHT31;54397;47.506;19.158;2023-07-02T15:47:57;28.34;42.57
67572;SHT31;54397;47.506;19.158;2023-07-02T15:51:21;28.31;43.23
67572;SHT31;54397;47.506;19.158;2023-07-02T15:54:44;28.32;43.04
67572;SHT31;54397;47.506;19.158;2023-07-02T15:58:11;28.29;42.12
67572;SHT31;54397;47.506;19.158;2023-07-02T16:01:35;28.34;39.86
67572;SHT31;54397;47.506;19.158;2023-07-02T16:04:59;28.32;39.04
67572;SHT31;54397;47.506;19.158;2023-07-02T16:08:24;28.38;39.50
67572;SHT31;54397;47.506;19.158;2023-07-02T16:11:47;28.37;40.54
67572;SHT31;54397;47.506;19.158;2023-07-02T16:15:09;28.25;40.94
67572;SHT31;54397;47.506;19.158;2023-07-02T16:18:31;28.22;41.64
67572;SHT31;54397;47.506;19.158;2023-07-02T16:21:53;28.24;42.36
67572;SHT31;54397;47.506;19.158;2023-07-02T16:25:18;28.05;43.68
67572;SHT31;54397;47.506;19.158;2023-07-02T16:28:39;28.02;43.99
67572;SHT31;54397;47.506;19.158;2023-07-02T16:32:04;28.04;44.39
67572;SHT31;54397;47.506;19.158;2023-07-02T16:35:26;27.83;44.80
67572;SHT31;54397;47.506;19.158;2023-07-02T16:38:49;27.74;45.49
67572;SHT31;54397;47.506;19.158;2023-07-02T16:42:16;27.63;46.82
67572;SHT31;54397;47.506;19.158;2023-07-02T16:45:37;27.67;46.65
67572;SHT31;54397;47.506;19.158;2023-07-02T16:49:02;27.74;46.13
67572;SHT31;54397;47.506;19.158;2023-07-02T16:52:23;27.73;46.05
67572;SHT31;54397;47.506;19.158;2023-07-02T16:55:45;27.56;44.15
67572;SHT31;54397;47.506;19.158;2023-07-02T16:59:13;27.52;44.40
67572;SHT31;54397;47.506;19.158;2023-07-02T17:02:40;27.41;44.78
67572;SHT31;54397;47.506;19.158;2023-07-02T17:06:04;27.43;44.84
67572;SHT31;54397;47.506;19.158;2023-07-02T17:09:34;27.42;44.85
67572;SHT31;54397;47.506;19.158;2023-07-02T17:12:58;27.36;44.40
67572;SHT31;54397;47.506;19.158;2023-07-02T17:16:20;27.22;45.15
67572;SHT31;54397;47.506;19.158;2023-07-02T17:19:44;27.12;44.00
67572;SHT31;54397;47.506;19.158;2023-07-02T17:23:06;27.01;44.92
67572;SHT31;54397;47.506;19.158;2023-07-02T17:26:27;27.01;44.85
67572;SHT31;54397;47.506;19.158;2023-07-02T17:29:51;27.02;45.27
67572;SHT31;54397;47.506;19.158;2023-07-02T17:33:13;26.99;45.27
67572;SHT31;54397;47.506;19.158;2023-07-02T17:36:37;26.97;45.81
67572;SHT31;54397;47.506;19.158;2023-07-02T17:40:01;26.95;45.72
67572;SHT31;54397;47.506;19.158;2023-07-02T17:43:27;26.90;46.69
67572;SHT31;54397;47.506;19.158;2023-07-02T17:46:53;26.91;46.86
67572;SHT31;54397;47.506;19.158;2023-07-02T17:50:15;26.65;46.97
67572;SHT31;54397;47.506;19.158;2023-07-02T17:53:39;26.63;47.16
67572;SHT31;54397;47.506;19.158;2023-07-02T17:57:01;26.63;47.34
67572;SHT31;54397;47.506;19.158;2023-07-02T18:00:25;26.51;48.19
67572;SHT31;54397;47.506;19.158;2023-07-02T18:03:51;26.46;48.34
67572;SHT31;54397;47.506;19.158;2023-07-02T18:07:19;26.37;48.88
67572;SHT31;54397;47.506;19.158;2023-07-02T18:10:41;26.30;49.81
67572;SHT31;54397;47.506;19.158;2023-07-02T18:14:03;26.22;49.88
67572;SHT31;54397;47.506;19.158;2023-07-02T18:17:25;26.15;49.85
67572;SHT31;54397;47.506;19.158;2023-07-02T18:20:48;26.06;49.30
67572;SHT31;54397;47.506;19.158;2023-07-02T18:24:10;25.98;49.36
67572;SHT31;54397;47.506;19.158;2023-07-02T18:27:35;25.92;49.45
67572;SHT31;54397;47.506;19.158;2023-07-02T18:30:59;25.92;48.70
67572;SHT31;54397;47.506;19.158;2023-07-02T18:34:26;25.71;48.96
67572;SHT31;54397;47.506;19.158;2023-07-02T18:37:52;25.72;50.01
67572;SHT31;54397;47.506;19.158;2023-07-02T18:41:16;25.71;49.86
67572;SHT31;54397;47.506;19.158;2023-07-02T18:44:40;25.67;49.49
67572;SHT31;54397;47.506;19.158;2023-07-02T18:48:02;25.58;50.04
67572;SHT31;54397;47.506;19.158;2023-07-02T18:51:26;25.48;50.48
67572;SHT31;54397;47.506;19.158;2023-07-02T18:54:48;25.57;51.54
67572;SHT31;54397;47.506;19.158;2023-07-02T18:58:09;25.58;51.97
67572;SHT31;54397;47.506;19.158;2023-07-02T19:01:33;25.62;50.57
67572;SHT31;54397;47.506;19.158;2023-07-02T19:04:55;25.53;48.86
67572;SHT31;54397;47.506;19.158;2023-07-02T19:08:23;25.35;51.00
67572;SHT31;54397;47.506;19.158;2023-07-02T19:11:47;25.24;49.15
67572;SHT31;54397;47.506;19.158;2023-07-02T19:15:09;25.02;49.71
67572;SHT31;54397;47.506;19.158;2023-07-02T19:18:33;25.07;49.59
67572;SHT31;54397;47.506;19.158;2023-07-02T19:21:55;24.97;50.23
67572;SHT31;54397;47.506;19.158;2023-07-02T19:25:17;25.02;50.02
67572;SHT31;54397;47.506;19.158;2023-07-02T19:28:39;24.90;50.85
67572;SHT31;54397;47.506;19.158;2023-07-02T19:32:03;24.92;51.02
67572;SHT31;54397;47.506;19.158;2023-07-02T19:35:25;24.88;50.46
67572;SHT31;54397;47.506;19.158;2023-07-02T19:38:51;24.75;50.77
67572;SHT31;54397;47.506;19.158;2023-07-02T19:42:17;24.64;51.35
67572;SHT31;54397;47.506;19.158;2023-07-02T19:45:42;24.68;51.25
67572;SHT31;54397;47.506;19.158;2023-07-02T19:49:06;24.62;51.46
67572;SHT31;54397;47.506;19.158;2023-07-02T19:52:29;24.42;52.41
67572;SHT31;54397;47.506;19.158;2023-07-02T19:55:51;24.41;52.10
67572;SHT31;54397;47.506;19.158;2023-07-02T19:59:13;24.17;52.88
67572;SHT31;54397;47.506;19.158;2023-07-02T20:02:36;24.21;52.89
67572;SHT31;54397;47.506;19.158;2023-07-02T20:06:02;24.21;53.12
67572;SHT31;54397;47.506;19.158;2023-07-02T20:09:24;24.18;53.09
67572;SHT31;54397;47.506;19.158;2023-07-02T20:12:46;24.16;53.14
67572;SHT31;54397;47.506;19.158;2023-07-02T20:16:07;24.16;53.79
67572;SHT31;54397;47.506;19.158;2023-07-02T20:19:30;24.24;53.15
67572;SHT31;54397;47.506;19.158;2023-07-02T20:22:52;24.31;52.84
67572;SHT31;54397;47.506;19.158;2023-07-02T20:26:15;24.22;53.39
67572;SHT31;54397;47.506;19.158;2023-07-02T20:29:37;24.10;53.66
67572;SHT31;54397;47.506;19.158;2023-07-02T20:32:59;23.93;54.13
67572;SHT31;54397;47.506;19.158;2023-07-02T20:36:20;23.96;54.17
67572;SHT31;54397;47.506;19.158;2023-07-02T20:39:44;23.87;54.02
67572;SHT31;54397;47.506;19.158;2023-07-02T20:43:10;23.83;53.67
67572;SHT31;54397;47.506;19.158;2023-07-02T20:46:38;23.96;53.73
67572;SHT31;54397;47.506;19.158;2023-07-02T20:50:13;23.94;53.53
67572;SHT31;54397;47.506;19.158;2023-07-02T20:53:35;23.80;53.67
67572;SHT31;54397;47.506;19.158;2023-07-02T20:57:01;23.93;53.69
67572;SHT31;54397;47.506;19.158;2023-07-02T21:00:25;23.93;53.92
67572;SHT31;54397;47.506;19.158;2023-07-02T21:03:50;23.94;53.59
67572;SHT31;54397;47.506;19.158;2023-07-02T21:07:14;23.66;53.90